CheckWX is a tool to help pilots better visualize weather data.  It is not intended as a substitute for an official pre-flight weather briefing.

22:09:59 UTC

KGPM METAR
Grand Prairie Municipal Airport
Grand Prairie, Texas, USA
Current

1 hour ago

KGPM 052050Z 00000KT 10SM BKN021 18/13 A3005
Observed
Apr-5 @ 20:50 UTC
Visibility
Flight Rules
MVFR
Cloud Levels
  • Broken at 2,100' AGL
Temperature
18°C / 64°F
Dewpoint
13°C / 55°F
Humidity
73%
Altimeter
30.05" Hg
Pressure
1017.62 hPa
Previous

2 hours ago

KGPM 051950Z 16003KT 10SM OVC017 17/12 A3008
Observed
Apr-5 @ 19:50 UTC
Wind
  • 160° at 3 KTS
Visibility
Flight Rules
MVFR
Cloud Levels
  • Overcast at 1,700' AGL
Temperature
17°C / 63°F
Dewpoint
12°C / 54°F
Humidity
73%
Altimeter
30.08" Hg
Pressure
1018.62 hPa
Previous

3 hours ago

KGPM 051850Z 00000KT 10SM OVC013 14/11 A3010
Observed
Apr-5 @ 18:50 UTC
Visibility
Flight Rules
MVFR
Cloud Levels
  • Overcast at 1,300' AGL
Temperature
14°C / 57°F
Dewpoint
11°C / 52°F
Humidity
82%
Altimeter
30.1" Hg
Pressure
1019.32 hPa